Time;durP1;ratioP1;P1;durP2;ratioP2;P2;SDS_P1;SDS_P2;PMS_P1;PMS_P2;Temp;Humidity;BMP_temperature;BMP_pressure;BME280_temperature;BME280_humidity;BME280_pressure;Samples;Min_cycle;Max_cycle;Signal;HPM_P1;HPM_P2
2022/09/22 00:00:58;;;;;;;;;;;8.20;99.90;;;;;;5072124;28;20013;-56
2022/09/22 00:03:24;;;;;;;;;;;8.20;99.90;;;;;;5056432;28;19920;-60
2022/09/22 00:05:56;;;;;;;;;;;8.10;99.90;;;;;;5074255;28;19924;-61
2022/09/22 00:08:22;;;;;;;;;;;8.50;99.90;;;;;;5074617;28;19924;-62
2022/09/22 00:10:57;;;;;;;;;;;8.10;99.90;;;;;;5073969;28;20372;-59
2022/09/22 00:13:22;;;;;;;;;;;8.10;99.90;;;;;;5074319;28;19931;-59
2022/09/22 00:15:48;;;;;;;;;;;8.00;99.90;;;;;;5074126;28;19920;-60
2022/09/22 00:18:13;;;;;;;;;;;7.90;99.90;;;;;;5074448;28;20007;-61
2022/09/22 00:20:39;;;;;;;;;;;8.30;99.90;;;;;;5056123;28;19928;-60
2022/09/22 00:23:05;;;;;;;;;;;7.80;99.90;;;;;;5074468;28;19924;-57
2022/09/22 00:25:30;;;;;;;;;;;7.80;99.90;;;;;;5074110;28;20391;-60
2022/09/22 00:27:56;;;;;;;;;;;7.90;99.90;;;;;;5074171;28;20035;-56
2022/09/22 00:30:22;;;;;;;;;;;7.70;99.90;;;;;;5074327;28;19930;-56
2022/09/22 00:32:47;;;;;;;;;;;7.60;99.90;;;;;;5073860;28;19920;-58
2022/09/22 00:35:13;;;;;;;;;;;7.50;99.90;;;;;;5074016;28;19925;-59
2022/09/22 00:37:38;;;;;;;;;;;8.10;99.90;;;;;;5073653;28;20438;-59
2022/09/22 00:40:04;;;;;;;;;;;7.60;99.90;;;;;;5073581;28;19924;-59
2022/09/22 00:42:31;;;;;;;;;;;7.60;99.90;;;;;;5073315;28;19924;-60
2022/09/22 00:44:56;;;;;;;;;;;7.60;99.90;;;;;;5074211;28;20259;-57
2022/09/22 00:47:32;;;;;;;;;;;7.60;99.90;;;;;;5073137;28;19927;-59
2022/09/22 00:50:12;;;;;;;;;;;7.60;99.90;;;;;;5074144;28;19920;-56
2022/09/22 00:52:46;;;;;;;;;;;7.60;99.90;;;;;;5073627;28;19920;-56
2022/09/22 00:55:15;;;;;;;;;;;7.60;99.90;;;;;;5073470;28;19978;-56
2022/09/22 00:57:41;;;;;;;;;;;7.70;99.90;;;;;;5073472;28;20289;-55
2022/09/22 01:00:08;;;;;;;;;;;7.50;99.90;;;;;;5073310;28;19920;-58
2022/09/22 01:02:34;;;;;;;;;;;7.50;99.90;;;;;;5073473;28;19920;-57
2022/09/22 01:04:59;;;;;;;;;;;7.50;99.90;;;;;;5073662;28;19927;-59
2022/09/22 01:07:27;;;;;;;;;;;7.50;99.90;;;;;;5073358;28;20062;-59
2022/09/22 01:09:54;;;;;;;;;;;7.40;99.90;;;;;;5073091;28;19924;-56
2022/09/22 01:12:21;;;;;;;;;;;7.40;99.90;;;;;;5072420;28;19955;-57
2022/09/22 01:15:14;;;;;;;;;;;7.40;99.90;;;;;;5072411;28;19931;-59
2022/09/22 01:17:46;;;;;;;;;;;7.40;99.90;;;;;;5068712;28;19924;-57
2022/09/22 01:20:14;;;;;;;;;;;7.40;99.90;;;;;;5073167;28;20389;-56
2022/09/22 01:22:58;;;;;;;;;;;7.30;99.90;;;;;;5073070;28;19989;-56
2022/09/22 01:25:47;;;;;;;;;;;7.20;99.90;;;;;;5072804;28;19962;-56
2022/09/22 01:28:31;;;;;;;;;;;7.20;99.90;;;;;;5072725;28;19924;-57
2022/09/22 01:31:16;;;;;;;;;;;7.10;99.90;;;;;;5072937;28;19930;-56
2022/09/22 01:33:45;;;;;;;;;;;7.00;99.90;;;;;;5026581;28;19924;-55
2022/09/22 01:36:13;;;;;;;;;;;7.00;99.90;;;;;;5074406;28;19920;-56
2022/09/22 01:38:42;;;;;;;;;;;7.00;99.90;;;;;;5065461;28;19974;-56
2022/09/22 01:41:34;;;;;;;;;;;7.00;99.90;;;;;;5072628;28;19967;-57
2022/09/22 01:44:01;;;;;;;;;;;7.00;99.90;;;;;;5041487;28;19920;-57
2022/09/22 01:46:39;;;;;;;;;;;7.00;99.90;;;;;;5071940;28;20415;-57
2022/09/22 01:49:06;;;;;;;;;;;7.00;99.90;;;;;;5054451;28;20324;-57
2022/09/22 01:51:58;;;;;;;;;;;6.90;99.90;;;;;;5072542;28;20442;-56
2022/09/22 01:54:30;;;;;;;;;;;7.00;99.90;;;;;;5067140;28;19924;-58
2022/09/22 01:56:59;;;;;;;;;;;7.00;99.90;;;;;;5067637;28;19955;-56
2022/09/22 01:59:27;;;;;;;;;;;7.40;99.90;;;;;;5072377;28;19927;-59
2022/09/22 02:01:58;;;;;;;;;;;6.90;99.90;;;;;;5072541;28;19931;-56
2022/09/22 02:04:25;;;;;;;;;;;6.90;99.90;;;;;;5071727;28;19931;-56
2022/09/22 02:06:50;;;;;;;;;;;6.90;99.90;;;;;;5072277;28;19924;-59
2022/09/22 02:09:17;;;;;;;;;;;6.90;99.90;;;;;;5071761;28;19928;-59
2022/09/22 02:11:43;;;;;;;;;;;6.80;99.90;;;;;;5072427;28;19920;-59
2022/09/22 02:14:09;;;;;;;;;;;6.70;99.90;;;;;;5054220;28;19926;-57
2022/09/22 02:16:35;;;;;;;;;;;7.20;99.90;;;;;;5071624;28;19920;-56
2022/09/22 02:19:18;;;;;;;;;;;6.70;99.90;;;;;;5072075;28;19916;-57
2022/09/22 02:21:45;;;;;;;;;;;6.60;99.90;;;;;;5057131;28;20398;-57
2022/09/22 02:24:29;;;;;;;;;;;6.70;99.90;;;;;;5071327;28;19916;-58
2022/09/22 02:26:59;;;;;;;;;;;6.70;99.90;;;;;;5071623;28;19931;-56
2022/09/22 02:29:27;;;;;;;;;;;6.60;99.90;;;;;;5072110;28;19920;-58
2022/09/22 02:31:54;;;;;;;;;;;6.60;99.90;;;;;;5071705;28;19931;-55
2022/09/22 02:34:19;;;;;;;;;;;6.60;99.90;;;;;;5071781;28;19916;-56
2022/09/22 02:37:04;;;;;;;;;;;6.60;99.90;;;;;;5068679;28;19924;-56
2022/09/22 02:39:46;;;;;;;;;;;6.60;99.90;;;;;;5071198;28;19921;-56
2022/09/22 02:42:27;;;;;;;;;;;6.60;99.90;;;;;;5071439;28;20362;-55
2022/09/22 02:44:55;;;;;;;;;;;6.60;99.90;;;;;;5071593;28;20449;-56
2022/09/22 02:47:27;;;;;;;;;;;6.80;99.90;;;;;;5071796;28;19921;-56
2022/09/22 02:49:54;;;;;;;;;;;6.50;99.90;;;;;;5071375;28;20361;-56
2022/09/22 02:52:21;;;;;;;;;;;6.50;99.90;;;;;;5071619;28;19924;-59
2022/09/22 02:54:47;;;;;;;;;;;6.50;99.90;;;;;;5071279;28;19927;-56
2022/09/22 02:57:12;;;;;;;;;;;6.50;99.90;;;;;;5071696;28;20292;-57
2022/09/22 02:59:38;;;;;;;;;;;6.70;99.90;;;;;;5071524;28;19920;-56
2022/09/22 03:02:04;;;;;;;;;;;7.20;99.90;;;;;;5071602;28;19964;-59
2022/09/22 03:04:29;;;;;;;;;;;6.50;99.90;;;;;;5071277;28;19924;-57
2022/09/22 03:06:55;;;;;;;;;;;6.50;99.90;;;;;;5070921;28;19925;-57
2022/09/22 03:09:20;;;;;;;;;;;6.40;99.90;;;;;;5069923;28;19938;-56
2022/09/22 03:11:46;;;;;;;;;;;6.40;99.90;;;;;;5070153;28;20320;-56
2022/09/22 03:14:11;;;;;;;;;;;6.40;99.90;;;;;;5071349;28;19985;-58
2022/09/22 03:16:37;;;;;;;;;;;6.40;99.90;;;;;;5064228;28;19924;-56
2022/09/22 03:19:02;;;;;;;;;;;6.60;99.90;;;;;;5067561;28;20358;-58
2022/09/22 03:21:28;;;;;;;;;;;6.40;99.90;;;;;;5071383;28;20366;-56
2022/09/22 03:23:54;;;;;;;;;;;6.40;99.90;;;;;;5070889;28;19916;-57
2022/09/22 03:26:19;;;;;;;;;;;6.60;99.90;;;;;;5053006;28;19970;-59
2022/09/22 03:28:45;;;;;;;;;;;6.40;99.90;;;;;;5071132;28;19931;-58
2022/09/22 03:31:10;;;;;;;;;;;6.40;99.90;;;;;;5071218;28;19966;-56
2022/09/22 03:33:36;;;;;;;;;;;6.30;99.90;;;;;;5053426;28;19920;-56
2022/09/22 03:36:02;;;;;;;;;;;6.30;99.90;;;;;;5072519;28;20409;-57
2022/09/22 03:38:28;;;;;;;;;;;6.30;99.90;;;;;;5073650;28;19924;-56
2022/09/22 03:40:53;;;;;;;;;;;6.30;99.90;;;;;;5075197;28;19931;-57
2022/09/22 03:43:19;;;;;;;;;;;6.30;99.90;;;;;;5056871;28;19923;-60
2022/09/22 03:45:45;;;;;;;;;;;6.40;99.90;;;;;;5075186;28;19920;-56
2022/09/22 03:48:10;;;;;;;;;;;6.20;99.90;;;;;;5075000;28;19920;-56
2022/09/22 03:50:36;;;;;;;;;;;6.20;99.90;;;;;;5074783;28;19920;-56
2022/09/22 03:53:02;;;;;;;;;;;6.10;99.90;;;;;;5074337;28;19924;-56
2022/09/22 03:55:27;;;;;;;;;;;6.20;99.90;;;;;;5074521;28;19928;-58
2022/09/22 03:57:53;;;;;;;;;;;6.20;99.90;;;;;;5074679;28;19927;-58
2022/09/22 04:00:18;;;;;;;;;;;6.60;99.90;;;;;;5074765;28;19920;-57
2022/09/22 04:02:44;;;;;;;;;;;6.70;99.90;;;;;;5074617;28;19924;-56
2022/09/22 04:05:10;;;;;;;;;;;6.10;99.90;;;;;;5074634;28;19920;-57
2022/09/22 04:07:35;;;;;;;;;;;6.10;99.90;;;;;;5073902;28;19960;-58
2022/09/22 04:10:01;;;;;;;;;;;6.10;99.90;;;;;;5074649;28;20006;-61
2022/09/22 04:12:27;;;;;;;;;;;6.10;99.90;;;;;;5074231;28;19939;-62
2022/09/22 04:14:52;;;;;;;;;;;6.80;99.90;;;;;;5074212;28;19924;-62
2022/09/22 04:17:19;;;;;;;;;;;6.10;99.90;;;;;;5062733;28;20011;-61
2022/09/22 04:19:45;;;;;;;;;;;6.70;99.90;;;;;;5074355;28;20361;-62
2022/09/22 04:22:11;;;;;;;;;;;6.00;99.90;;;;;;5073947;28;19920;-61
2022/09/22 04:24:37;;;;;;;;;;;6.00;99.90;;;;;;5073743;28;19920;-62
2022/09/22 04:27:02;;;;;;;;;;;6.00;99.90;;;;;;5073956;28;19951;-62
2022/09/22 04:29:28;;;;;;;;;;;6.00;99.90;;;;;;5074203;28;19921;-63
2022/09/22 04:31:53;;;;;;;;;;;6.10;99.90;;;;;;5074389;28;20453;-58
2022/09/22 04:34:19;;;;;;;;;;;5.90;99.90;;;;;;5073695;28;19920;-59
2022/09/22 04:36:45;;;;;;;;;;;5.80;99.90;;;;;;5045288;28;19971;-58
2022/09/22 04:39:10;;;;;;;;;;;5.80;99.90;;;;;;5059701;28;19920;-59
2022/09/22 04:41:36;;;;;;;;;;;5.80;99.90;;;;;;5059433;28;20285;-59
2022/09/22 04:44:01;;;;;;;;;;;5.80;99.90;;;;;;5059682;28;19921;-60
2022/09/22 04:46:27;;;;;;;;;;;5.80;99.90;;;;;;5056028;28;19971;-59
2022/09/22 04:48:53;;;;;;;;;;;6.00;99.90;;;;;;5055869;28;19925;-60
2022/09/22 04:51:18;;;;;;;;;;;5.70;99.90;;;;;;5053453;28;19928;-59
2022/09/22 04:53:44;;;;;;;;;;;5.60;99.90;;;;;;5054028;28;19946;-56
2022/09/22 04:56:09;;;;;;;;;;;5.60;99.90;;;;;;5053943;28;19928;-56
2022/09/22 04:58:35;;;;;;;;;;;5.60;99.90;;;;;;5054407;28;19921;-55
2022/09/22 05:01:01;;;;;;;;;;;5.60;99.90;;;;;;5055653;28;20018;-57
2022/09/22 05:03:27;;;;;;;;;;;5.60;99.90;;;;;;5058489;28;19924;-56
2022/09/22 05:05:54;;;;;;;;;;;5.60;99.90;;;;;;5035844;28;19928;-57
2022/09/22 05:08:20;;;;;;;;;;;5.60;99.90;;;;;;5053042;28;19921;-56
2022/09/22 05:10:45;;;;;;;;;;;5.60;99.90;;;;;;5054556;28;20054;-56
2022/09/22 05:13:12;;;;;;;;;;;5.60;99.90;;;;;;5065723;28;19928;-57
2022/09/22 05:15:38;;;;;;;;;;;5.60;99.90;;;;;;5070135;28;19920;-57
2022/09/22 05:18:04;;;;;;;;;;;5.60;99.90;;;;;;5071591;28;19928;-57
2022/09/22 05:20:30;;;;;;;;;;;5.60;99.90;;;;;;5072196;28;20021;-56
2022/09/22 05:22:55;;;;;;;;;;;5.70;99.90;;;;;;5070528;28;19924;-59
2022/09/22 05:25:21;;;;;;;;;;;6.10;99.90;;;;;;5071761;28;20400;-59
2022/09/22 05:27:48;;;;;;;;;;;5.60;99.90;;;;;;5072205;28;19982;-59
2022/09/22 05:30:13;;;;;;;;;;;5.60;99.90;;;;;;5071482;28;19920;-57
2022/09/22 05:32:43;;;;;;;;;;;5.60;99.90;;;;;;5071956;28;20324;-59
2022/09/22 05:35:10;;;;;;;;;;;5.60;99.90;;;;;;5070833;28;20011;-62
2022/09/22 05:37:35;;;;;;;;;;;5.60;99.90;;;;;;5071393;28;19978;-58
2022/09/22 05:40:01;;;;;;;;;;;5.60;99.90;;;;;;5071929;28;19990;-60
2022/09/22 05:42:27;;;;;;;;;;;5.60;99.90;;;;;;5054077;28;20007;-59
2022/09/22 05:44:52;;;;;;;;;;;5.60;99.90;;;;;;5054036;28;20015;-58
2022/09/22 05:47:18;;;;;;;;;;;5.60;99.90;;;;;;5070722;28;19963;-57
2022/09/22 05:49:44;;;;;;;;;;;5.70;99.90;;;;;;5054570;28;20770;-56
2022/09/22 05:52:09;;;;;;;;;;;5.70;99.90;;;;;;5072374;28;19917;-57
2022/09/22 05:54:35;;;;;;;;;;;6.30;99.90;;;;;;5072307;28;20268;-60
2022/09/22 05:57:00;;;;;;;;;;;5.70;99.90;;;;;;5071973;28;19943;-57
2022/09/22 05:59:26;;;;;;;;;;;5.70;99.90;;;;;;5071894;28;19939;-60
2022/09/22 06:01:51;;;;;;;;;;;5.80;99.90;;;;;;5070676;28;19930;-58
2022/09/22 06:04:17;;;;;;;;;;;5.90;99.90;;;;;;5071788;28;19921;-57
2022/09/22 06:06:42;;;;;;;;;;;6.00;99.90;;;;;;5066067;28;19964;-57
2022/09/22 06:09:08;;;;;;;;;;;6.10;99.90;;;;;;5071910;28;19921;-56
2022/09/22 06:11:34;;;;;;;;;;;6.20;99.90;;;;;;5072200;28;19920;-56
2022/09/22 06:13:59;;;;;;;;;;;6.40;99.90;;;;;;5071726;28;19927;-56
2022/09/22 06:16:25;;;;;;;;;;;6.50;99.90;;;;;;5067179;28;20366;-55
2022/09/22 06:18:50;;;;;;;;;;;7.10;99.90;;;;;;5071289;28;20286;-59
2022/09/22 06:21:16;;;;;;;;;;;6.70;99.90;;;;;;5071386;28;19924;-57
2022/09/22 06:23:42;;;;;;;;;;;6.80;99.90;;;;;;5072115;28;19920;-57
2022/09/22 06:26:07;;;;;;;;;;;6.90;99.90;;;;;;5071427;28;19920;-58
2022/09/22 06:28:34;;;;;;;;;;;7.10;99.90;;;;;;5071092;28;19920;-56
2022/09/22 06:30:59;;;;;;;;;;;7.80;99.90;;;;;;5071172;28;20260;-57
2022/09/22 06:33:26;;;;;;;;;;;7.50;99.90;;;;;;5070278;28;20348;-55
2022/09/22 06:35:51;;;;;;;;;;;7.60;99.90;;;;;;5074208;28;19965;-56
2022/09/22 06:38:17;;;;;;;;;;;7.70;99.90;;;;;;5064647;28;19924;-56
2022/09/22 06:40:43;;;;;;;;;;;7.90;99.90;;;;;;5049262;28;20047;-56
2022/09/22 06:43:14;;;;;;;;;;;8.00;99.90;;;;;;5067618;28;19975;-57
2022/09/22 06:45:42;;;;;;;;;;;8.20;99.90;;;;;;5067791;28;19924;-55
2022/09/22 06:48:09;;;;;;;;;;;8.30;99.90;;;;;;5068000;28;20015;-57
2022/09/22 06:50:34;;;;;;;;;;;9.00;99.90;;;;;;5065751;28;20390;-58
2022/09/22 06:53:03;;;;;;;;;;;9.00;99.90;;;;;;5067862;28;19927;-62
2022/09/22 06:55:28;;;;;;;;;;;8.80;99.90;;;;;;5048929;28;20302;-57
2022/09/22 06:57:58;;;;;;;;;;;7.70;99.90;;;;;;5067829;28;19931;-59
2022/09/22 07:00:27;;;;;;;;;;;9.30;99.90;;;;;;5066810;28;19924;-60
2022/09/22 07:03:00;;;;;;;;;;;9.50;99.90;;;;;;5067357;28;20496;-56
2022/09/22 07:05:25;;;;;;;;;;;9.70;99.90;;;;;;5067070;28;19930;-57
2022/09/22 07:07:51;;;;;;;;;;;10.00;99.90;;;;;;5066920;28;19924;-56
2022/09/22 07:10:16;;;;;;;;;;;10.20;99.90;;;;;;5032891;28;19933;-56
2022/09/22 07:12:42;;;;;;;;;;;10.40;99.90;;;;;;5072178;28;19939;-57
2022/09/22 07:15:07;;;;;;;;;;;10.60;99.90;;;;;;5071282;28;20019;-57
2022/09/22 07:17:34;;;;;;;;;;;10.80;99.90;;;;;;5071875;28;19930;-58
2022/09/22 07:19:59;;;;;;;;;;;11.00;99.90;;;;;;5071709;28;19930;-56
2022/09/22 07:22:25;;;;;;;;;;;11.20;99.90;;;;;;5071009;28;20022;-57
2022/09/22 07:24:51;;;;;;;;;;;11.50;99.90;;;;;;5069140;28;19924;-57
2022/09/22 07:27:25;;;;;;;;;;;11.70;99.90;;;;;;5069837;28;19969;-58
2022/09/22 07:29:53;;;;;;;;;;;11.80;99.90;;;;;;5067694;28;19924;-58
2022/09/22 07:32:20;;;;;;;;;;;12.10;99.90;;;;;;5071445;28;19920;-61
2022/09/22 07:34:46;;;;;;;;;;;12.30;99.90;;;;;;5051669;28;19932;-60
2022/09/22 07:37:14;;;;;;;;;;;12.60;99.90;;;;;;5069965;28;20015;-58
2022/09/22 07:39:42;;;;;;;;;;;12.70;99.90;;;;;;5070612;28;20007;-57
2022/09/22 07:42:07;;;;;;;;;;;12.80;99.90;;;;;;5068310;28;19920;-57
2022/09/22 07:48:34;;;;;;;;;;;13.30;99.90;;;;;;5071214;28;20045;-57
2022/09/22 07:50:03;;;;;;;;;;;13.10;99.90;;;;;;5071182;28;19982;-59
2022/09/22 07:52:29;;;;;;;;;;;13.30;99.90;;;;;;5069771;28;20015;-57
2022/09/22 07:54:54;;;;;;;;;;;13.50;99.90;;;;;;5070600;28;20014;-57
2022/09/22 07:57:20;;;;;;;;;;;13.70;99.90;;;;;;5071355;28;20502;-57
2022/09/22 07:59:45;;;;;;;;;;;13.80;99.90;;;;;;5071157;28;20389;-57
2022/09/22 08:02:11;;;;;;;;;;;13.90;99.90;;;;;;5070504;28;20464;-57
2022/09/22 08:04:37;;;;;;;;;;;14.20;99.90;;;;;;5070476;28;19928;-57
2022/09/22 08:07:03;;;;;;;;;;;14.30;99.90;;;;;;5052290;28;19928;-57
2022/09/22 08:09:32;;;;;;;;;;;14.60;99.90;;;;;;5070884;28;19924;-57
2022/09/22 08:11:58;;;;;;;;;;;14.60;99.90;;;;;;5070919;28;19925;-57
2022/09/22 08:14:25;;;;;;;;;;;14.60;99.90;;;;;;5070721;28;20019;-57
2022/09/22 08:16:52;;;;;;;;;;;14.80;99.90;;;;;;5052235;28;19932;-57
2022/09/22 08:19:17;;;;;;;;;;;14.90;99.90;;;;;;5070779;28;19947;-57
2022/09/22 08:21:44;;;;;;;;;;;15.10;99.90;;;;;;5070950;28;20360;-57
2022/09/22 08:24:10;;;;;;;;;;;15.30;99.90;;;;;;5069034;28;19931;-57
2022/09/22 08:26:40;;;;;;;;;;;15.40;99.90;;;;;;5046827;28;19924;-57
2022/09/22 08:29:06;;;;;;;;;;;15.80;99.90;;;;;;5068674;28;19931;-57
2022/09/22 08:31:32;;;;;;;;;;;16.00;99.90;;;;;;5065624;28;20296;-57
2022/09/22 08:33:58;;;;;;;;;;;16.20;99.90;;;;;;5065349;28;20441;-58
2022/09/22 08:36:26;;;;;;;;;;;16.60;99.90;;;;;;5061234;28;19928;-57
2022/09/22 08:38:56;;;;;;;;;;;16.80;99.90;;;;;;5042823;28;19931;-57
2022/09/22 08:41:37;;;;;;;;;;;17.50;99.90;;;;;;5066126;28;19936;-56
2022/09/22 08:44:06;;;;;;;;;;;17.70;99.90;;;;;;5050629;28;20413;-57
2022/09/22 08:46:37;;;;;;;;;;;18.00;99.90;;;;;;5050038;28;20299;-57
2022/09/22 08:51:52;;;;;;;;;;;18.30;99.90;;;;;;5056736;28;19986;-58
2022/09/22 08:54:19;;;;;;;;;;;19.30;99.90;;;;;;5045291;28;20401;-57
2022/09/22 08:56:56;;;;;;;;;;;19.20;99.90;;;;;;5060792;28;19924;-57
2022/09/22 08:59:23;;;;;;;;;;;19.60;99.90;;;;;;5065288;28;19997;-57
2022/09/22 09:02:08;;;;;;;;;;;19.70;99.90;;;;;;5067164;28;20398;-57
2022/09/22 09:04:50;;;;;;;;;;;20.10;99.90;;;;;;5028092;28;19924;-57
2022/09/22 09:07:24;;;;;;;;;;;20.40;99.90;;;;;;5067507;28;19924;-57
2022/09/22 09:10:22;;;;;;;;;;;20.50;99.90;;;;;;5068181;28;19924;-57
2022/09/22 09:12:48;;;;;;;;;;;20.80;99.90;;;;;;5026528;28;19924;-58
2022/09/22 09:15:16;;;;;;;;;;;21.10;99.90;;;;;;5059057;28;19925;-57
2022/09/22 09:17:44;;;;;;;;;;;21.30;99.90;;;;;;5061798;28;19983;-58
2022/09/22 09:20:17;;;;;;;;;;;21.30;99.90;;;;;;5064020;28;20006;-58
2022/09/22 09:22:46;;;;;;;;;;;21.40;99.90;;;;;;5060614;28;19935;-58
2022/09/22 09:25:34;;;;;;;;;;;21.70;99.90;;;;;;5066639;28;19925;-58
2022/09/22 09:28:05;;;;;;;;;;;21.70;99.90;;;;;;5066687;28;19924;-58
2022/09/22 09:30:57;;;;;;;;;;;21.80;99.90;;;;;;5058477;28;19924;-59
2022/09/22 09:33:28;;;;;;;;;;;21.70;99.90;;;;;;5055518;28;19928;-58
2022/09/22 09:35:53;;;;;;;;;;;22.80;98.80;;;;;;5065145;28;19970;-58
2022/09/22 09:38:24;;;;;;;;;;;22.50;98.90;;;;;;5064200;28;20656;-58
2022/09/22 09:40:54;;;;;;;;;;;22.80;97.60;;;;;;5045776;28;19990;-59
2022/09/22 09:43:21;;;;;;;;;;;23.10;98.10;;;;;;5064455;28;20400;-58
2022/09/22 09:46:06;;;;;;;;;;;23.00;97.70;;;;;;5063690;28;19925;-59
2022/09/22 09:48:37;;;;;;;;;;;23.00;98.50;;;;;;5056723;28;20001;-59
2022/09/22 09:51:04;;;;;;;;;;;23.20;97.20;;;;;;5063967;28;19928;-58
2022/09/22 09:53:36;;;;;;;;;;;23.10;98.30;;;;;;5063968;28;20928;-58
2022/09/22 09:56:02;;;;;;;;;;;23.60;96.80;;;;;;5063860;28;19924;-58
2022/09/22 10:01:12;;;;;;;;;;;23.60;96.30;;;;;;5062034;28;19975;-61
2022/09/22 10:03:43;;;;;;;;;;;23.80;95.80;;;;;;5054697;28;19924;-58
2022/09/22 10:06:09;;;;;;;;;;;22.60;96.10;;;;;;5063973;28;19939;-58
2022/09/22 10:08:46;;;;;;;;;;;22.70;96.40;;;;;;5064772;28;19975;-58
2022/09/22 10:11:13;;;;;;;;;;;23.20;97.20;;;;;;5053404;28;20088;-58
2022/09/22 10:13:40;;;;;;;;;;;22.70;96.20;;;;;;5064827;28;20012;-58
2022/09/22 10:16:19;;;;;;;;;;;22.40;95.40;;;;;;5064539;28;19976;-58
2022/09/22 10:18:45;;;;;;;;;;;22.80;96.20;;;;;;5064101;28;19925;-58
2022/09/22 10:21:14;;;;;;;;;;;22.10;95.70;;;;;;5064137;28;19932;-58
2022/09/22 10:23:41;;;;;;;;;;;22.60;96.80;;;;;;5064697;28;20051;-58
2022/09/22 10:26:13;;;;;;;;;;;22.30;95.90;;;;;;5064697;28;19930;-58
2022/09/22 10:28:39;;;;;;;;;;;22.40;95.90;;;;;;5064461;28;20293;-58
2022/09/22 10:31:04;;;;;;;;;;;22.60;95.80;;;;;;5064651;28;19924;-59
2022/09/22 10:33:31;;;;;;;;;;;22.10;95.90;;;;;;5055906;28;19931;-58
2022/09/22 10:36:07;;;;;;;;;;;22.20;97.00;;;;;;5065505;28;19924;-58
2022/09/22 10:38:34;;;;;;;;;;;22.50;96.00;;;;;;5038421;28;19932;-63
2022/09/22 10:41:06;;;;;;;;;;;22.30;95.70;;;;;;5064864;28;20378;-61
2022/09/22 10:43:47;;;;;;;;;;;22.40;95.90;;;;;;5056975;28;20150;-59
2022/09/22 10:46:15;;;;;;;;;;;22.40;96.30;;;;;;5063306;28;19978;-58
2022/09/22 10:48:53;;;;;;;;;;;22.40;96.00;;;;;;5063337;28;19975;-58
2022/09/22 10:51:32;;;;;;;;;;;22.70;96.10;;;;;;5062883;28;20421;-58
2022/09/22 10:53:58;;;;;;;;;;;22.70;96.80;;;;;;5045700;28;20019;-59
2022/09/22 10:56:33;;;;;;;;;;;22.70;96.00;;;;;;5064078;28;20015;-59
2022/09/22 10:59:14;;;;;;;;;;;22.70;95.40;;;;;;5063391;28;20400;-59
2022/09/22 11:01:59;;;;;;;;;;;22.90;95.20;;;;;;5054678;28;19924;-64
2022/09/22 11:04:51;;;;;;;;;;;22.40;94.70;;;;;;5055336;28;19959;-65
2022/09/22 11:13:23;;;;;;;;;;;22.70;94.80;;;;;;5062885;28;19924;-59
2022/09/22 11:15:58;;;;;;;;;;;22.10;94.40;;;;;;5064346;28;19924;-59
2022/09/22 11:18:23;;;;;;;;;;;21.20;94.30;;;;;;5063829;28;19948;-59
2022/09/22 11:20:54;;;;;;;;;;;21.60;95.30;;;;;;5064156;28;19931;-59
2022/09/22 11:23:20;;;;;;;;;;;22.50;94.70;;;;;;5063968;28;19968;-59
2022/09/22 11:25:45;;;;;;;;;;;22.30;94.50;;;;;;5064181;28;20011;-59
2022/09/22 11:28:25;;;;;;;;;;;22.20;93.60;;;;;;5064134;28;19924;-59
2022/09/22 11:30:51;;;;;;;;;;;22.50;94.90;;;;;;5063385;28;19931;-59
2022/09/22 11:33:20;;;;;;;;;;;23.20;94.30;;;;;;5054186;28;19979;-59
2022/09/22 11:35:59;;;;;;;;;;;22.60;93.80;;;;;;5062902;28;19932;-59
2022/09/22 11:38:43;;;;;;;;;;;23.00;93.60;;;;;;5062881;28;19936;-69
2022/09/22 11:41:15;;;;;;;;;;;22.90;94.30;;;;;;5063263;28;19930;-59
2022/09/22 11:43:46;;;;;;;;;;;22.80;92.70;;;;;;5046322;28;19967;-59
2022/09/22 11:46:21;;;;;;;;;;;21.70;94.00;;;;;;5064186;28;19950;-63
2022/09/22 11:48:56;;;;;;;;;;;21.20;94.20;;;;;;5063993;28;19977;-62
2022/09/22 11:51:24;;;;;;;;;;;21.40;93.50;;;;;;5045879;28;20594;-58
2022/09/22 11:54:03;;;;;;;;;;;22.30;93.30;;;;;;5063791;28;20382;-59
2022/09/22 11:56:32;;;;;;;;;;;22.00;93.50;;;;;;5057015;28;19924;-63
2022/09/22 11:59:02;;;;;;;;;;;21.50;93.90;;;;;;5066951;28;19924;-65
2022/09/22 12:01:30;;;;;;;;;;;21.20;93.60;;;;;;5066391;28;19932;-59
2022/09/22 12:04:03;;;;;;;;;;;21.10;93.90;;;;;;5058753;28;20049;-62
2022/09/22 12:06:33;;;;;;;;;;;21.60;93.50;;;;;;5039718;28;19924;-59
2022/09/22 12:09:01;;;;;;;;;;;21.70;93.70;;;;;;5066358;28;19924;-59
2022/09/22 12:11:28;;;;;;;;;;;23.50;93.60;;;;;;5066956;28;19947;-66
2022/09/22 12:13:54;;;;;;;;;;;23.30;92.50;;;;;;5067448;28;19989;-58
2022/09/22 12:16:40;;;;;;;;;;;23.30;92.50;;;;;;5065062;28;19925;-59
2022/09/22 12:19:12;;;;;;;;;;;23.20;91.50;;;;;;5066198;28;19924;-63
2022/09/22 12:21:56;;;;;;;;;;;22.30;92.20;;;;;;5058785;28;20550;-59
2022/09/22 12:24:23;;;;;;;;;;;21.70;92.50;;;;;;5065315;28;19975;-60
2022/09/22 12:26:49;;;;;;;;;;;21.70;93.90;;;;;;5048523;28;20294;-66
2022/09/22 12:29:15;;;;;;;;;;;22.70;91.80;;;;;;5066534;28;19936;-62
2022/09/22 12:31:41;;;;;;;;;;;25.30;92.10;;;;;;5066221;28;19924;-58
2022/09/22 12:34:21;;;;;;;;;;;27.70;90.50;;;;;;5059239;28;19931;-59
2022/09/22 12:36:50;;;;;;;;;;;27.80;88.20;;;;;;5066284;28;19924;-59
2022/09/22 12:39:17;;;;;;;;;;;25.70;88.90;;;;;;5066089;28;20066;-58
2022/09/22 12:41:46;;;;;;;;;;;24.80;90.20;;;;;;5066742;28;20036;-59
2022/09/22 12:44:18;;;;;;;;;;;23.40;89.10;;;;;;5066732;28;19916;-59
2022/09/22 12:46:44;;;;;;;;;;;23.00;90.70;;;;;;5066689;28;19924;-59
2022/09/22 12:49:12;;;;;;;;;;;26.20;90.90;;;;;;5048124;28;19932;-59
2022/09/22 12:51:38;;;;;;;;;;;26.80;89.50;;;;;;5066064;28;19924;-59
2022/09/22 12:54:22;;;;;;;;;;;25.70;86.70;;;;;;5065619;28;19947;-59
2022/09/22 12:56:50;;;;;;;;;;;23.70;88.10;;;;;;5060300;28;19924;-59
2022/09/22 12:59:34;;;;;;;;;;;23.00;90.60;;;;;;5065518;28;19924;-59
2022/09/22 13:02:15;;;;;;;;;;;22.80;91.30;;;;;;5059034;28;20434;-60
2022/09/22 13:05:00;;;;;;;;;;;22.30;91.90;;;;;;5061432;28;20011;-59
2022/09/22 13:07:32;;;;;;;;;;;22.20;93.40;;;;;;5033473;28;19951;-60
2022/09/22 13:10:31;;;;;;;;;;;21.70;93.40;;;;;;5068320;28;19990;-59
2022/09/22 13:13:03;;;;;;;;;;;21.60;93.50;;;;;;5018670;28;20006;-59
2022/09/22 13:15:30;;;;;;;;;;;21.70;94.30;;;;;;5069642;28;20364;-58
2022/09/22 13:17:57;;;;;;;;;;;21.80;93.40;;;;;;5059763;28;19928;-58
2022/09/22 13:20:25;;;;;;;;;;;22.10;93.20;;;;;;5053302;28;19929;-59
2022/09/22 13:22:51;;;;;;;;;;;22.40;93.40;;;;;;5071301;28;19920;-58
2022/09/22 13:25:21;;;;;;;;;;;23.00;92.50;;;;;;5071155;28;19920;-58
